sensor_id;sensor_type;location;lat;lon;timestamp;pressure;altitude;pressure_sealevel;temperature;humidity
5703;BME280;2876;51.738;10.050;2023-02-21T00:03:52;99388.09;;;9.24;100.00
5703;BME280;2876;51.738;10.050;2023-02-21T00:10:14;99399.94;;;9.14;100.00
5703;BME280;2876;51.738;10.050;2023-02-21T00:16:34;99415.78;;;9.16;100.00
5703;BME280;2876;51.738;10.050;2023-02-21T00:22:55;99406.75;;;9.17;100.00
5703;BME280;2876;51.738;10.050;2023-02-21T00:29:16;99410.44;;;9.16;100.00
5703;BME280;2876;51.738;10.050;2023-02-21T00:35:36;99404.38;;;9.22;100.00
5703;BME280;2876;51.738;10.050;2023-02-21T00:41:57;99416.06;;;9.21;100.00
5703;BME280;2876;51.738;10.050;2023-02-21T00:48:22;99414.59;;;9.19;99.88
5703;BME280;2876;51.738;10.050;2023-02-21T00:54:42;99409.84;;;9.35;99.91
5703;BME280;2876;51.738;10.050;2023-02-21T01:01:03;99403.50;;;9.22;100.00
5703;BME280;2876;51.738;10.050;2023-02-21T01:07:23;99407.78;;;9.16;100.00
5703;BME280;2876;51.738;10.050;2023-02-21T01:13:44;99392.38;;;9.18;100.00
5703;BME280;2876;51.738;10.050;2023-02-21T01:20:05;99391.81;;;9.23;100.00
5703;BME280;2876;51.738;10.050;2023-02-21T01:26:26;99391.72;;;9.16;100.00
5703;BME280;2876;51.738;10.050;2023-02-21T01:32:46;99404.22;;;9.09;100.00
5703;BME280;2876;51.738;10.050;2023-02-21T01:39:07;99405.50;;;9.13;100.00
5703;BME280;2876;51.738;10.050;2023-02-21T01:45:53;99399.00;;;9.22;100.00
5703;BME280;2876;51.738;10.050;2023-02-21T01:52:15;99380.50;;;9.06;100.00
5703;BME280;2876;51.738;10.050;2023-02-21T01:58:36;99378.16;;;9.18;100.00
5703;BME280;2876;51.738;10.050;2023-02-21T02:04:58;99390.84;;;9.09;100.00
5703;BME280;2876;51.738;10.050;2023-02-21T02:18:29;99357.91;;;9.08;100.00
5703;BME280;2876;51.738;10.050;2023-02-21T02:44:34;99391.41;;;9.26;99.32
5703;BME280;2876;51.738;10.050;2023-02-21T02:50:39;99404.69;;;9.34;99.55
5703;BME280;2876;51.738;10.050;2023-02-21T02:56:42;99409.44;;;9.17;100.00
5703;BME280;2876;51.738;10.050;2023-02-21T03:22:26;99404.03;;;8.81;100.00
5703;BME280;2876;51.738;10.050;2023-02-21T03:28:32;99393.63;;;8.71;100.00
5703;BME280;2876;51.738;10.050;2023-02-21T03:34:37;99384.06;;;8.77;100.00
5703;BME280;2876;51.738;10.050;2023-02-21T03:40:39;99389.75;;;8.88;100.00
5703;BME280;2876;51.738;10.050;2023-02-21T03:46:41;99377.41;;;8.87;100.00
5703;BME280;2876;51.738;10.050;2023-02-21T03:52:43;99386.06;;;8.89;100.00
5703;BME280;2876;51.738;10.050;2023-02-21T03:58:45;99390.50;;;8.82;100.00
5703;BME280;2876;51.738;10.050;2023-02-21T04:04:47;99386.31;;;8.95;100.00
5703;BME280;2876;51.738;10.050;2023-02-21T04:10:49;99382.91;;;9.01;100.00
5703;BME280;2876;51.738;10.050;2023-02-21T04:16:53;99374.78;;;9.09;100.00
5703;BME280;2876;51.738;10.050;2023-02-21T04:22:55;99378.28;;;9.09;100.00
5703;BME280;2876;51.738;10.050;2023-02-21T04:29:05;99370.72;;;9.13;100.00
5703;BME280;2876;51.738;10.050;2023-02-21T04:35:07;99366.28;;;9.05;100.00
5703;BME280;2876;51.738;10.050;2023-02-21T04:41:09;99368.28;;;9.18;100.00
5703;BME280;2876;51.738;10.050;2023-02-21T04:47:11;99369.16;;;9.25;100.00
5703;BME280;2876;51.738;10.050;2023-02-21T04:53:14;99352.75;;;9.28;100.00
5703;BME280;2876;51.738;10.050;2023-02-21T04:59:16;99348.91;;;9.16;100.00
5703;BME280;2876;51.738;10.050;2023-02-21T05:05:18;99339.88;;;9.38;100.00
5703;BME280;2876;51.738;10.050;2023-02-21T05:11:20;99341.91;;;9.36;100.00
5703;BME280;2876;51.738;10.050;2023-02-21T05:17:22;99328.78;;;9.42;100.00
5703;BME280;2876;51.738;10.050;2023-02-21T05:23:25;99329.22;;;9.45;100.00
5703;BME280;2876;51.738;10.050;2023-02-21T05:29:36;99327.38;;;9.24;100.00
5703;BME280;2876;51.738;10.050;2023-02-21T05:35:38;99317.38;;;9.33;100.00
5703;BME280;2876;51.738;10.050;2023-02-21T05:41:49;99320.25;;;9.31;99.83
5703;BME280;2876;51.738;10.050;2023-02-21T05:47:51;99329.09;;;9.32;99.78
5703;BME280;2876;51.738;10.050;2023-02-21T05:53:56;99330.09;;;9.31;99.64
5703;BME280;2876;51.738;10.050;2023-02-21T05:59:58;99336.50;;;9.30;99.33
5703;BME280;2876;51.738;10.050;2023-02-21T06:06:00;99330.06;;;9.24;99.61
5703;BME280;2876;51.738;10.050;2023-02-21T06:12:03;99342.94;;;9.14;99.97
5703;BME280;2876;51.738;10.050;2023-02-21T06:18:05;99335.28;;;9.32;99.06
5703;BME280;2876;51.738;10.050;2023-02-21T06:24:08;99343.13;;;9.34;98.45
5703;BME280;2876;51.738;10.050;2023-02-21T06:30:11;99350.06;;;9.28;99.12
5703;BME280;2876;51.738;10.050;2023-02-21T06:36:20;99352.50;;;9.23;98.47
5703;BME280;2876;51.738;10.050;2023-02-21T06:42:23;99353.94;;;9.47;97.78
5703;BME280;2876;51.738;10.050;2023-02-21T06:48:24;99365.19;;;9.36;97.69
5703;BME280;2876;51.738;10.050;2023-02-21T06:54:26;99357.78;;;9.38;98.16
5703;BME280;2876;51.738;10.050;2023-02-21T07:00:30;99360.47;;;9.38;98.11
5703;BME280;2876;51.738;10.050;2023-02-21T07:06:32;99370.53;;;9.36;97.97
5703;BME280;2876;51.738;10.050;2023-02-21T07:12:34;99374.16;;;9.28;98.82
5703;BME280;2876;51.738;10.050;2023-02-21T07:18:36;99379.97;;;9.32;98.85
5703;BME280;2876;51.738;10.050;2023-02-21T07:24:38;99390.22;;;9.71;96.66
5703;BME280;2876;51.738;10.050;2023-02-21T07:30:40;99394.56;;;9.72;95.78
5703;BME280;2876;51.738;10.050;2023-02-21T07:36:42;99395.31;;;9.66;96.29
5703;BME280;2876;51.738;10.050;2023-02-21T07:42:45;99411.59;;;9.64;96.41
5703;BME280;2876;51.738;10.050;2023-02-21T07:48:48;99419.16;;;9.61;96.39
5703;BME280;2876;51.738;10.050;2023-02-21T07:54:50;99419.81;;;9.63;96.44
5703;BME280;2876;51.738;10.050;2023-02-21T08:00:52;99432.03;;;9.51;97.68
5703;BME280;2876;51.738;10.050;2023-02-21T08:07:00;99430.53;;;9.63;97.60
5703;BME280;2876;51.738;10.050;2023-02-21T08:13:03;99438.16;;;9.66;97.62
5703;BME280;2876;51.738;10.050;2023-02-21T08:19:06;99448.06;;;9.65;97.60
5703;BME280;2876;51.738;10.050;2023-02-21T08:25:15;99454.75;;;9.76;96.63
5703;BME280;2876;51.738;10.050;2023-02-21T08:31:17;99463.34;;;9.72;97.90
5703;BME280;2876;51.738;10.050;2023-02-21T08:37:19;99456.59;;;9.97;96.53
5703;BME280;2876;51.738;10.050;2023-02-21T08:43:23;99455.41;;;10.00;95.69
5703;BME280;2876;51.738;10.050;2023-02-21T08:49:25;99439.59;;;10.11;96.36
5703;BME280;2876;51.738;10.050;2023-02-21T08:55:27;99450.31;;;10.11;96.04
5703;BME280;2876;51.738;10.050;2023-02-21T09:01:34;99454.66;;;10.12;95.17
5703;BME280;2876;51.738;10.050;2023-02-21T09:07:36;99445.66;;;10.20;94.45
5703;BME280;2876;51.738;10.050;2023-02-21T09:13:38;99457.41;;;10.40;93.84
5703;BME280;2876;51.738;10.050;2023-02-21T09:19:41;99456.63;;;10.47;93.98
5703;BME280;2876;51.738;10.050;2023-02-21T09:25:43;99447.00;;;10.59;93.23
5703;BME280;2876;51.738;10.050;2023-02-21T09:31:45;99454.50;;;10.70;91.97
5703;BME280;2876;51.738;10.050;2023-02-21T09:37:47;99448.06;;;10.64;92.75
5703;BME280;2876;51.738;10.050;2023-02-21T09:43:52;99457.63;;;10.80;91.69
5703;BME280;2876;51.738;10.050;2023-02-21T09:50:17;99455.63;;;10.89;91.52
5703;BME280;2876;51.738;10.050;2023-02-21T09:56:38;99447.25;;;11.05;90.58
5703;BME280;2876;51.738;10.050;2023-02-21T10:09:44;99454.38;;;11.39;87.64
5703;BME280;2876;51.738;10.050;2023-02-21T10:21:55;99460.28;;;11.63;86.62
5703;BME280;2876;51.738;10.050;2023-02-21T10:27:59;99454.75;;;11.84;86.57
5703;BME280;2876;51.738;10.050;2023-02-21T10:34:04;99467.78;;;12.01;85.70
5703;BME280;2876;51.738;10.050;2023-02-21T10:47:41;99465.94;;;12.14;84.68
5703;BME280;2876;51.738;10.050;2023-02-21T10:53:46;99466.78;;;12.41;83.84
5703;BME280;2876;51.738;10.050;2023-02-21T10:59:48;99473.38;;;12.39;84.10
5703;BME280;2876;51.738;10.050;2023-02-21T11:05:54;99458.06;;;12.26;84.11
5703;BME280;2876;51.738;10.050;2023-02-21T11:18:24;99455.78;;;12.16;82.70
5703;BME280;2876;51.738;10.050;2023-02-21T11:24:26;99450.19;;;11.85;83.92
5703;BME280;2876;51.738;10.050;2023-02-21T11:30:31;99452.81;;;11.58;85.91
5703;BME280;2876;51.738;10.050;2023-02-21T11:36:38;99447.44;;;11.65;86.72
5703;BME280;2876;51.738;10.050;2023-02-21T11:42:41;99454.34;;;11.87;84.43
5703;BME280;2876;51.738;10.050;2023-02-21T11:55:17;99443.59;;;12.34;81.85
5703;BME280;2876;51.738;10.050;2023-02-21T12:21:50;99422.72;;;12.23;82.90
5703;BME280;2876;51.738;10.050;2023-02-21T12:47:48;99424.97;;;12.39;81.46
5703;BME280;2876;51.738;10.050;2023-02-21T12:54:01;99412.97;;;12.35;80.41
5703;BME280;2876;51.738;10.050;2023-02-21T13:12:54;99406.91;;;12.73;78.26
5703;BME280;2876;51.738;10.050;2023-02-21T13:19:08;99400.91;;;12.57;78.82
5703;BME280;2876;51.738;10.050;2023-02-21T13:31:42;99398.25;;;12.51;80.10
5703;BME280;2876;51.738;10.050;2023-02-21T13:37:50;99397.25;;;12.45;79.89
5703;BME280;2876;51.738;10.050;2023-02-21T13:43:53;99386.25;;;12.47;79.84
5703;BME280;2876;51.738;10.050;2023-02-21T13:49:57;99384.63;;;12.39;80.15
5703;BME280;2876;51.738;10.050;2023-02-21T14:02:28;99381.31;;;12.30;81.25
5703;BME280;2876;51.738;10.050;2023-02-21T14:08:51;99387.94;;;12.34;81.30
5703;BME280;2876;51.738;10.050;2023-02-21T14:15:05;99379.88;;;12.28;82.10
5703;BME280;2876;51.738;10.050;2023-02-21T14:21:16;99372.25;;;12.31;82.05
5703;BME280;2876;51.738;10.050;2023-02-21T14:33:28;99370.78;;;12.29;82.10
5703;BME280;2876;51.738;10.050;2023-02-21T14:39:39;99364.19;;;12.18;81.99
5703;BME280;2876;51.738;10.050;2023-02-21T14:46:21;99364.22;;;11.91;83.40
5703;BME280;2876;51.738;10.050;2023-02-21T15:11:36;99356.50;;;11.55;85.08
5703;BME280;2876;51.738;10.050;2023-02-21T15:17:39;99358.16;;;11.56;85.27
5703;BME280;2876;51.738;10.050;2023-02-21T15:23:44;99357.09;;;11.44;86.45
5703;BME280;2876;51.738;10.050;2023-02-21T15:36:28;99359.13;;;11.15;89.37
5703;BME280;2876;51.738;10.050;2023-02-21T15:42:31;99355.13;;;10.98;90.00
5703;BME280;2876;51.738;10.050;2023-02-21T15:48:35;99367.56;;;11.06;90.69
5703;BME280;2876;51.738;10.050;2023-02-21T15:54:38;99369.25;;;11.13;89.62
5703;BME280;2876;51.738;10.050;2023-02-21T16:00:43;99369.16;;;10.87;89.55
5703;BME280;2876;51.738;10.050;2023-02-21T16:06:55;99364.59;;;10.87;89.09
5703;BME280;2876;51.738;10.050;2023-02-21T16:13:00;99371.94;;;10.65;90.99
5703;BME280;2876;51.738;10.050;2023-02-21T16:19:02;99365.97;;;10.70;91.02
5703;BME280;2876;51.738;10.050;2023-02-21T16:31:27;99371.91;;;10.59;91.53
5703;BME280;2876;51.738;10.050;2023-02-21T16:37:30;99377.50;;;10.29;92.96
5703;BME280;2876;51.738;10.050;2023-02-21T16:43:32;99382.28;;;10.34;93.05
5703;BME280;2876;51.738;10.050;2023-02-21T16:49:34;99381.31;;;10.48;92.05
5703;BME280;2876;51.738;10.050;2023-02-21T16:55:37;99391.59;;;10.38;92.92
5703;BME280;2876;51.738;10.050;2023-02-21T17:01:39;99376.22;;;10.25;93.46
5703;BME280;2876;51.738;10.050;2023-02-21T17:07:41;99388.53;;;10.41;93.21
5703;BME280;2876;51.738;10.050;2023-02-21T17:13:43;99387.41;;;10.29;94.25
5703;BME280;2876;51.738;10.050;2023-02-21T17:19:45;99386.91;;;10.19;95.10
5703;BME280;2876;51.738;10.050;2023-02-21T17:25:47;99396.69;;;10.05;95.98
5703;BME280;2876;51.738;10.050;2023-02-21T17:31:55;99397.84;;;9.96;96.64
5703;BME280;2876;51.738;10.050;2023-02-21T17:37:59;99403.16;;;10.17;95.92
5703;BME280;2876;51.738;10.050;2023-02-21T17:44:04;99405.94;;;10.02;96.52
5703;BME280;2876;51.738;10.050;2023-02-21T17:50:07;99405.41;;;10.13;96.07
5703;BME280;2876;51.738;10.050;2023-02-21T17:56:09;99410.53;;;10.08;96.16
5703;BME280;2876;51.738;10.050;2023-02-21T18:02:11;99409.44;;;10.03;96.16
5703;BME280;2876;51.738;10.050;2023-02-21T18:08:16;99421.56;;;9.99;96.47
5703;BME280;2876;51.738;10.050;2023-02-21T18:14:20;99427.94;;;9.98;96.88
5703;BME280;2876;51.738;10.050;2023-02-21T18:20:22;99430.94;;;10.09;96.55
5703;BME280;2876;51.738;10.050;2023-02-21T18:26:25;99427.44;;;10.09;96.42
5703;BME280;2876;51.738;10.050;2023-02-21T18:32:27;99430.03;;;10.02;96.93
5703;BME280;2876;51.738;10.050;2023-02-21T18:38:29;99430.13;;;10.09;96.46
5703;BME280;2876;51.738;10.050;2023-02-21T18:44:32;99431.91;;;10.02;96.42
5703;BME280;2876;51.738;10.050;2023-02-21T18:50:34;99423.28;;;10.06;96.60
5703;BME280;2876;51.738;10.050;2023-02-21T18:56:37;99427.81;;;10.06;96.55
5703;BME280;2876;51.738;10.050;2023-02-21T19:02:39;99425.50;;;10.03;96.63
5703;BME280;2876;51.738;10.050;2023-02-21T19:08:41;99423.94;;;10.08;96.68
5703;BME280;2876;51.738;10.050;2023-02-21T19:14:43;99432.94;;;10.01;96.05
5703;BME280;2876;51.738;10.050;2023-02-21T19:20:45;99424.66;;;9.96;96.41
5703;BME280;2876;51.738;10.050;2023-02-21T19:26:50;99430.06;;;9.81;97.29
5703;BME280;2876;51.738;10.050;2023-02-21T19:32:52;99416.00;;;9.72;97.61
5703;BME280;2876;51.738;10.050;2023-02-21T19:38:54;99426.63;;;9.65;97.78
5703;BME280;2876;51.738;10.050;2023-02-21T19:44:56;99416.38;;;9.69;98.09
5703;BME280;2876;51.738;10.050;2023-02-21T19:50:58;99423.16;;;9.72;98.18
5703;BME280;2876;51.738;10.050;2023-02-21T19:57:00;99423.88;;;9.80;98.05
5703;BME280;2876;51.738;10.050;2023-02-21T20:03:02;99431.91;;;9.80;97.89
5703;BME280;2876;51.738;10.050;2023-02-21T20:09:07;99425.34;;;9.83;97.57
5703;BME280;2876;51.738;10.050;2023-02-21T20:15:09;99421.03;;;9.82;97.81
5703;BME280;2876;51.738;10.050;2023-02-21T20:21:27;99422.66;;;9.83;97.08
5703;BME280;2876;51.738;10.050;2023-02-21T20:27:29;99421.09;;;10.16;96.17
5703;BME280;2876;51.738;10.050;2023-02-21T20:33:31;99420.13;;;9.96;95.64
5703;BME280;2876;51.738;10.050;2023-02-21T20:39:33;99420.63;;;9.85;95.90
5703;BME280;2876;51.738;10.050;2023-02-21T20:45:35;99421.66;;;9.84;95.74
5703;BME280;2876;51.738;10.050;2023-02-21T20:51:41;99410.22;;;9.75;95.71
5703;BME280;2876;51.738;10.050;2023-02-21T20:57:44;99418.66;;;9.72;95.89
5703;BME280;2876;51.738;10.050;2023-02-21T21:03:46;99416.25;;;9.77;95.68
5703;BME280;2876;51.738;10.050;2023-02-21T21:09:49;99413.69;;;9.69;95.89
5703;BME280;2876;51.738;10.050;2023-02-21T21:15:51;99406.59;;;9.83;95.26
5703;BME280;2876;51.738;10.050;2023-02-21T21:21:53;99414.72;;;9.68;95.88
5703;BME280;2876;51.738;10.050;2023-02-21T21:27:55;99402.72;;;9.64;95.43
5703;BME280;2876;51.738;10.050;2023-02-21T21:33:59;99399.94;;;9.72;95.25
5703;BME280;2876;51.738;10.050;2023-02-21T21:40:02;99403.44;;;9.73;94.82
5703;BME280;2876;51.738;10.050;2023-02-21T21:46:19;99403.94;;;9.61;95.39
5703;BME280;2876;51.738;10.050;2023-02-21T21:52:23;99407.00;;;9.58;95.50
5703;BME280;2876;51.738;10.050;2023-02-21T21:58:25;99405.53;;;9.56;95.82
5703;BME280;2876;51.738;10.050;2023-02-21T22:04:27;99407.56;;;9.54;96.13
5703;BME280;2876;51.738;10.050;2023-02-21T22:10:29;99399.16;;;9.57;96.19
5703;BME280;2876;51.738;10.050;2023-02-21T22:16:40;99387.34;;;9.51;96.43
5703;BME280;2876;51.738;10.050;2023-02-21T22:22:48;99385.47;;;9.45;96.65
5703;BME280;2876;51.738;10.050;2023-02-21T22:28:50;99379.81;;;9.40;97.28
5703;BME280;2876;51.738;10.050;2023-02-21T22:34:52;99375.56;;;9.46;97.07
5703;BME280;2876;51.738;10.050;2023-02-21T22:40:54;99369.81;;;9.49;97.23
5703;BME280;2876;51.738;10.050;2023-02-21T22:47:00;99367.91;;;9.43;97.19
5703;BME280;2876;51.738;10.050;2023-02-21T22:53:05;99363.66;;;9.27;98.41
5703;BME280;2876;51.738;10.050;2023-02-21T22:59:09;99355.06;;;9.31;98.46
5703;BME280;2876;51.738;10.050;2023-02-21T23:05:18;99344.72;;;9.28;98.52
5703;BME280;2876;51.738;10.050;2023-02-21T23:11:21;99343.44;;;9.24;99.18
5703;BME280;2876;51.738;10.050;2023-02-21T23:17:26;99337.13;;;9.32;98.85
5703;BME280;2876;51.738;10.050;2023-02-21T23:23:28;99338.13;;;9.31;99.07
5703;BME280;2876;51.738;10.050;2023-02-21T23:29:30;99335.09;;;9.34;99.20
5703;BME280;2876;51.738;10.050;2023-02-21T23:35:32;99334.88;;;9.35;99.35
5703;BME280;2876;51.738;10.050;2023-02-21T23:41:37;99333.44;;;9.33;99.10
5703;BME280;2876;51.738;10.050;2023-02-21T23:47:41;99334.25;;;9.33;99.40
5703;BME280;2876;51.738;10.050;2023-02-21T23:53:43;99332.03;;;9.37;99.46
5703;BME280;2876;51.738;10.050;2023-02-21T23:59:46;99328.91;;;9.33;99.83
